createdAt,value
2022-10-19T00:00:48.662Z,6.57
2022-10-19T00:01:50.424Z,6.23
2022-10-19T00:02:52.387Z,5.93
2022-10-19T00:03:56.013Z,5.53
2022-10-19T00:04:57.740Z,5.97
2022-10-19T00:06:00.489Z,4.93
2022-10-19T00:07:02.206Z,4.60
2022-10-19T00:08:04.240Z,4.37
2022-10-19T00:09:18.995Z,4.90
2022-10-19T00:10:20.759Z,4.47
2022-10-19T00:11:23.755Z,4.57
2022-10-19T00:12:25.730Z,4.73
2022-10-19T00:13:27.606Z,4.97
2022-10-19T00:14:29.454Z,6.60
2022-10-19T00:15:31.174Z,6.50
2022-10-19T00:16:38.166Z,5.33
2022-10-19T00:17:40.020Z,5.90
2022-10-19T00:18:43.720Z,6.67
2022-10-19T00:19:45.444Z,6.27
2022-10-19T00:20:47.192Z,6.93
2022-10-19T00:22:56.024Z,7.83
2022-10-19T00:23:57.835Z,7.83
2022-10-19T00:24:59.534Z,8.63
2022-10-19T00:26:01.573Z,7.50
2022-10-19T00:27:03.407Z,6.03
2022-10-19T00:28:05.135Z,4.80
2022-10-19T00:29:07.820Z,4.33
2022-10-19T00:30:09.892Z,4.37
2022-10-19T00:31:16.306Z,4.50
2022-10-19T00:32:18.054Z,6.33
2022-10-19T00:33:22.347Z,6.00
2022-10-19T00:34:24.860Z,7.10
2022-10-19T00:35:27.261Z,6.73
2022-10-19T00:36:36.309Z,7.83
2022-10-19T00:37:38.062Z,7.57
2022-10-19T00:38:42.246Z,10.17
2022-10-19T00:39:44.043Z,9.13
2022-10-19T00:40:46.905Z,8.17
2022-10-19T00:41:48.926Z,6.10
2022-10-19T00:42:56.197Z,7.40
2022-10-19T00:44:27.378Z,9.67
2022-10-19T00:45:29.084Z,9.30
2022-10-19T00:46:36.551Z,12.70
2022-10-19T00:47:39.026Z,12.73
2022-10-19T00:48:40.782Z,7.60
2022-10-19T00:49:45.498Z,10.83
2022-10-19T00:50:50.942Z,13.30
2022-10-19T00:51:58.327Z,13.40
2022-10-19T00:53:00.423Z,10.20
2022-10-19T00:54:05.746Z,9.20
2022-10-19T00:55:10.116Z,9.13
2022-10-19T00:56:15.802Z,10.17
2022-10-19T00:57:18.007Z,7.47
2022-10-19T00:58:19.868Z,9.10
2022-10-19T00:59:25.074Z,8.40
2022-10-19T01:00:27.357Z,7.20
2022-10-19T01:01:29.771Z,8.47
2022-10-19T01:02:31.916Z,10.17
2022-10-19T01:03:34.534Z,11.93
2022-10-19T01:04:42.078Z,11.10
2022-10-19T01:05:43.928Z,11.70
2022-10-19T01:06:45.998Z,11.53
2022-10-19T01:07:47.757Z,12.30
2022-10-19T01:08:49.503Z,10.80
2022-10-19T01:09:51.743Z,11.10
2022-10-19T01:11:23.552Z,9.87
2022-10-19T01:12:58.756Z,9.87
2022-10-19T01:14:24.964Z,12.97
2022-10-19T01:15:46.925Z,14.67
2022-10-19T01:17:05.108Z,12.20
2022-10-19T01:18:25.611Z,11.37
2022-10-19T01:20:09.976Z,12.83
2022-10-19T01:21:26.236Z,12.90
2022-10-19T01:23:17.043Z,11.23
2022-10-19T01:25:04.347Z,11.27
2022-10-19T01:26:45.261Z,10.63
2022-10-19T01:28:30.358Z,11.60
2022-10-19T01:29:50.824Z,12.53
2022-10-19T01:31:07.363Z,10.67
2022-10-19T01:32:35.590Z,13.40
2022-10-19T01:33:59.724Z,12.07
2022-10-19T01:35:20.082Z,10.70
2022-10-19T01:36:35.555Z,10.40
2022-10-19T01:37:55.818Z,11.43
2022-10-19T01:39:18.878Z,10.77
2022-10-19T01:40:39.251Z,9.57
2022-10-19T01:42:12.958Z,9.77
2022-10-19T01:43:40.393Z,7.03
2022-10-19T01:45:19.544Z,9.67
2022-10-19T01:46:47.003Z,11.80
2022-10-19T01:48:01.175Z,9.83
2022-10-19T01:49:20.227Z,15.17
2022-10-19T01:50:34.081Z,9.40
2022-10-19T01:51:45.583Z,9.60
2022-10-19T01:52:51.570Z,9.57
2022-10-19T01:53:58.577Z,8.97
2022-10-19T01:55:03.178Z,11.50
2022-10-19T01:56:06.815Z,8.80
2022-10-19T01:57:13.967Z,11.20
2022-10-19T01:58:23.555Z,10.23
2022-10-19T01:59:27.138Z,8.07
2022-10-19T02:00:32.274Z,12.43
2022-10-19T02:01:38.605Z,8.93
2022-10-19T02:02:48.242Z,8.07
2022-10-19T02:03:52.685Z,7.97
2022-10-19T02:04:57.495Z,8.23
2022-10-19T02:06:02.062Z,7.97
2022-10-19T02:07:07.489Z,7.47
2022-10-19T02:08:25.450Z,8.30
2022-10-19T02:09:27.245Z,8.00
2022-10-19T02:10:33.643Z,9.10
2022-10-19T02:11:41.256Z,8.17
2022-10-19T02:12:44.625Z,8.47
2022-10-19T02:13:54.299Z,7.63
2022-10-19T02:15:01.065Z,9.50
2022-10-19T02:16:09.408Z,6.63
2022-10-19T02:17:23.967Z,9.17
2022-10-19T02:18:32.875Z,7.87
2022-10-19T02:19:35.456Z,8.43
2022-10-19T02:20:37.547Z,8.67
2022-10-19T02:21:39.937Z,7.67
2022-10-19T02:22:42.194Z,8.07
2022-10-19T02:23:44.510Z,7.30
2022-10-19T02:24:46.217Z,8.13
2022-10-19T02:25:48.214Z,7.07
2022-10-19T02:26:50.195Z,7.47
2022-10-19T02:27:52.080Z,8.07
2022-10-19T02:28:56.316Z,7.63
2022-10-19T02:29:58.212Z,7.50
2022-10-19T02:31:00.815Z,9.37
2022-10-19T02:32:04.146Z,8.00
2022-10-19T02:33:06.149Z,8.10
2022-10-19T02:34:09.186Z,8.67
2022-10-19T02:35:14.464Z,8.30
2022-10-19T02:36:16.353Z,8.90
2022-10-19T02:37:20.944Z,9.73
2022-10-19T02:38:26.810Z,10.43
2022-10-19T02:39:29.051Z,8.83
2022-10-19T02:40:39.536Z,10.47
2022-10-19T02:42:10.209Z,8.93
2022-10-19T02:43:19.197Z,11.40
2022-10-19T02:44:38.549Z,8.60
2022-10-19T02:46:18.611Z,8.40
2022-10-19T02:47:29.260Z,8.17
2022-10-19T02:48:35.882Z,7.93
2022-10-19T02:49:39.215Z,8.03
2022-10-19T02:50:51.961Z,8.27
2022-10-19T02:52:11.142Z,7.80
2022-10-19T02:53:13.355Z,8.20
2022-10-19T02:54:15.072Z,7.97
2022-10-19T02:55:16.910Z,10.03
2022-10-19T02:56:18.611Z,8.27
2022-10-19T02:57:25.865Z,8.77
2022-10-19T02:58:27.568Z,8.00
2022-10-19T02:59:30.039Z,7.50
2022-10-19T03:00:31.767Z,7.70
2022-10-19T03:01:33.478Z,9.30
2022-10-19T03:02:35.639Z,7.70
2022-10-19T03:03:37.344Z,6.93
2022-10-19T03:04:39.269Z,7.30
2022-10-19T03:05:40.993Z,7.87
2022-10-19T03:06:43.441Z,7.67
2022-10-19T03:07:45.291Z,7.57
2022-10-19T03:08:47.009Z,7.20
2022-10-19T03:09:49.890Z,7.50
2022-10-19T03:10:51.674Z,7.47
2022-10-19T03:11:55.752Z,8.10
2022-10-19T03:12:58.543Z,7.53
2022-10-19T03:14:00.288Z,7.80
2022-10-19T03:15:01.977Z,7.67
2022-10-19T03:16:10.151Z,9.37
2022-10-19T03:17:12.046Z,8.23
2022-10-19T03:18:13.746Z,7.80
2022-10-19T03:19:15.509Z,11.33
2022-10-19T03:20:17.316Z,9.37
2022-10-19T03:21:19.907Z,8.87
2022-10-19T03:22:21.648Z,8.47
2022-10-19T03:23:23.347Z,7.17
2022-10-19T03:24:25.229Z,8.33
2022-10-19T03:25:27.167Z,7.70
2022-10-19T03:26:28.968Z,7.20
2022-10-19T03:27:30.837Z,8.23
2022-10-19T03:28:33.176Z,8.80
2022-10-19T03:29:34.903Z,8.53
2022-10-19T03:30:36.593Z,7.13
2022-10-19T03:31:38.360Z,7.37
2022-10-19T03:32:40.104Z,7.53
2022-10-19T03:33:41.890Z,7.87
2022-10-19T03:34:43.651Z,8.10
2022-10-19T03:35:45.520Z,9.13
2022-10-19T03:36:47.522Z,7.30
2022-10-19T03:37:49.221Z,7.10
2022-10-19T03:38:56.848Z,6.77
2022-10-19T03:39:58.678Z,9.33
2022-10-19T03:41:00.374Z,8.27
2022-10-19T03:42:02.099Z,7.57
2022-10-19T03:43:03.914Z,6.83
2022-10-19T03:44:08.038Z,6.97
2022-10-19T03:45:10.276Z,8.70
2022-10-19T03:46:12.026Z,7.30
2022-10-19T03:47:13.736Z,7.20
2022-10-19T03:48:15.419Z,6.03
2022-10-19T03:49:17.272Z,7.57
2022-10-19T03:50:19.077Z,7.73
2022-10-19T03:51:34.820Z,7.47
2022-10-19T03:52:36.530Z,6.73
2022-10-19T03:53:40.484Z,5.93
2022-10-19T03:54:42.270Z,5.63
2022-10-19T03:55:43.989Z,5.77
2022-10-19T03:56:45.836Z,6.40
2022-10-19T03:57:47.527Z,6.17
2022-10-19T03:58:51.159Z,6.20
2022-10-19T03:59:52.867Z,5.90
2022-10-19T04:00:54.591Z,5.63
2022-10-19T04:01:56.318Z,6.13
2022-10-19T04:02:58.025Z,5.77
2022-10-19T04:04:09.512Z,5.93
2022-10-19T04:05:11.263Z,5.47
2022-10-19T04:06:21.343Z,6.00
2022-10-19T04:07:23.856Z,5.60
2022-10-19T04:08:25.569Z,5.97
2022-10-19T04:09:27.330Z,6.20
2022-10-19T04:10:31.347Z,6.17
2022-10-19T04:11:35.308Z,7.60
2022-10-19T04:12:37.086Z,8.37
2022-10-19T04:13:39.255Z,8.40
2022-10-19T04:14:56.351Z,6.63
2022-10-19T04:15:59.505Z,6.30
2022-10-19T04:17:02.681Z,6.87
2022-10-19T04:18:04.507Z,7.43
2022-10-19T04:19:06.312Z,6.70
2022-10-19T04:20:08.910Z,6.93
2022-10-19T04:21:31.465Z,8.13
2022-10-19T04:22:33.217Z,6.53
2022-10-19T04:23:36.774Z,6.47
2022-10-19T04:24:38.492Z,9.80
2022-10-19T04:25:40.238Z,6.60
2022-10-19T04:26:49.066Z,6.83
2022-10-19T04:27:50.774Z,6.57
2022-10-19T04:28:52.899Z,7.33
2022-10-19T04:29:54.703Z,8.57
2022-10-19T04:30:57.036Z,6.73
2022-10-19T04:31:59.275Z,6.27
2022-10-19T04:33:00.981Z,6.23
2022-10-19T04:34:02.777Z,10.07
2022-10-19T04:35:05.164Z,10.07
2022-10-19T04:36:10.379Z,10.63
2022-10-19T04:37:12.077Z,7.67
2022-10-19T04:38:14.088Z,11.13
2022-10-19T04:39:15.915Z,7.53
2022-10-19T04:40:17.724Z,10.43
2022-10-19T04:41:22.223Z,8.90
2022-10-19T04:42:23.972Z,8.80
2022-10-19T04:43:25.702Z,13.30
2022-10-19T04:44:27.427Z,9.93
2022-10-19T04:45:29.291Z,10.17
2022-10-19T04:46:31.202Z,10.43
2022-10-19T04:47:33.360Z,8.40
2022-10-19T04:48:38.544Z,9.63
2022-10-19T04:49:40.272Z,9.20
2022-10-19T04:50:42.000Z,8.17
2022-10-19T04:51:43.715Z,8.13
2022-10-19T04:52:45.813Z,8.07
2022-10-19T04:53:48.136Z,9.17
2022-10-19T04:54:49.855Z,7.77
2022-10-19T04:55:51.726Z,7.97
2022-10-19T04:56:53.834Z,6.70
2022-10-19T04:57:55.657Z,7.00
2022-10-19T04:58:59.939Z,6.83
2022-10-19T05:00:02.103Z,8.27
2022-10-19T05:01:13.507Z,6.97
2022-10-19T05:02:15.264Z,7.00
2022-10-19T05:03:17.655Z,8.37
2022-10-19T05:04:19.342Z,7.40
2022-10-19T05:05:21.143Z,7.03
2022-10-19T05:06:24.030Z,8.57
2022-10-19T05:07:25.774Z,6.60
2022-10-19T05:08:27.505Z,7.10
2022-10-19T05:09:29.224Z,6.87
2022-10-19T05:10:31.303Z,7.10
2022-10-19T05:11:33.024Z,8.57
2022-10-19T05:12:36.191Z,7.67
2022-10-19T05:13:38.668Z,7.07
2022-10-19T05:14:42.725Z,7.93
2022-10-19T05:15:55.419Z,6.70
2022-10-19T05:16:57.158Z,7.30
2022-10-19T05:17:58.999Z,6.23
2022-10-19T05:19:01.555Z,6.70
2022-10-19T05:20:03.648Z,6.13
2022-10-19T05:21:13.651Z,6.83
2022-10-19T05:22:15.392Z,6.57
2022-10-19T05:23:17.489Z,5.90
2022-10-19T05:24:19.199Z,7.00
2022-10-19T05:25:20.913Z,6.40
2022-10-19T05:26:26.670Z,7.07
2022-10-19T05:27:28.443Z,9.97
2022-10-19T05:28:30.714Z,6.60
2022-10-19T05:29:33.821Z,7.10
2022-10-19T05:30:35.690Z,7.30
2022-10-19T05:31:37.471Z,8.07
2022-10-19T05:32:39.171Z,7.23
2022-10-19T05:33:42.864Z,7.73
2022-10-19T05:34:44.578Z,6.77
2022-10-19T05:35:46.301Z,7.93
2022-10-19T05:36:48.057Z,14.47
2022-10-19T05:37:55.194Z,13.70
2022-10-19T05:38:58.239Z,9.03
2022-10-19T05:39:59.955Z,9.03
2022-10-19T05:41:01.670Z,8.33
2022-10-19T05:42:03.659Z,6.97
2022-10-19T05:43:05.340Z,8.17
2022-10-19T05:44:07.277Z,7.27
2022-10-19T05:45:09.588Z,7.77
2022-10-19T05:46:18.124Z,8.20
2022-10-19T05:47:19.861Z,9.30
2022-10-19T05:48:21.589Z,7.40
2022-10-19T05:49:23.610Z,9.20
2022-10-19T05:50:25.382Z,7.60
2022-10-19T05:51:28.747Z,6.87
2022-10-19T05:52:30.530Z,7.13
2022-10-19T05:53:34.306Z,7.87
2022-10-19T05:54:37.355Z,6.60
2022-10-19T05:55:39.067Z,8.07
2022-10-19T05:56:42.238Z,7.37
2022-10-19T05:57:43.973Z,7.27
2022-10-19T05:58:46.312Z,7.67
2022-10-19T05:59:48.023Z,7.03
2022-10-19T06:00:58.969Z,7.47
2022-10-19T06:02:00.809Z,8.63
2022-10-19T06:03:02.570Z,9.67
2022-10-19T06:04:04.534Z,6.67
2022-10-19T06:05:07.169Z,9.50
2022-10-19T06:06:09.930Z,9.03
2022-10-19T06:07:11.641Z,8.93
2022-10-19T06:08:13.403Z,10.20
2022-10-19T06:09:15.143Z,6.83
2022-10-19T06:10:17.495Z,6.53
2022-10-19T06:11:26.875Z,7.03
2022-10-19T06:12:28.605Z,6.33
2022-10-19T06:13:30.319Z,6.57
2022-10-19T06:14:32.058Z,7.83
2022-10-19T06:15:39.924Z,6.67
2022-10-19T06:16:42.321Z,6.47
2022-10-19T06:17:44.016Z,8.60
2022-10-19T06:18:46.327Z,6.70
2022-10-19T06:19:48.040Z,6.20
2022-10-19T06:20:49.747Z,6.40
2022-10-19T06:21:51.489Z,6.33
2022-10-19T06:22:53.219Z,7.97
2022-10-19T06:23:58.944Z,8.77
2022-10-19T06:25:00.680Z,6.40
2022-10-19T06:26:08.756Z,7.73
2022-10-19T06:27:10.533Z,6.83
2022-10-19T06:28:12.534Z,6.60
2022-10-19T06:29:14.317Z,6.63
2022-10-19T06:30:16.117Z,5.90
2022-10-19T06:31:18.396Z,5.93
2022-10-19T06:32:20.521Z,6.80
2022-10-19T06:33:22.221Z,6.23
2022-10-19T06:34:24.064Z,6.40
2022-10-19T06:35:25.912Z,6.97
2022-10-19T06:36:30.536Z,6.80
2022-10-19T06:37:32.824Z,6.60
2022-10-19T06:38:35.064Z,7.57
2022-10-19T06:39:36.815Z,7.23
2022-10-19T06:40:38.527Z,7.60
2022-10-19T06:41:40.237Z,6.90
2022-10-19T06:42:41.942Z,7.97
2022-10-19T06:43:44.399Z,8.03
2022-10-19T06:44:46.218Z,6.73
2022-10-19T06:45:47.931Z,6.63
2022-10-19T06:46:49.642Z,6.87
2022-10-19T06:47:51.550Z,7.23
2022-10-19T06:48:56.725Z,7.00
2022-10-19T06:49:58.463Z,7.37
2022-10-19T06:51:06.161Z,6.77
2022-10-19T06:52:08.285Z,7.37
2022-10-19T06:53:10.122Z,7.23
2022-10-19T06:54:11.856Z,7.13
2022-10-19T06:55:13.780Z,8.10
2022-10-19T06:56:15.961Z,8.63
2022-10-19T06:57:17.669Z,7.13
2022-10-19T06:58:19.646Z,10.53
2022-10-19T06:59:21.393Z,7.60
2022-10-19T07:00:23.159Z,9.97
2022-10-19T07:01:25.844Z,8.57
2022-10-19T07:02:27.618Z,8.23
2022-10-19T07:03:30.103Z,6.90
2022-10-19T07:04:31.873Z,7.10
2022-10-19T07:05:33.630Z,6.77
2022-10-19T07:06:35.346Z,8.33
2022-10-19T07:07:37.407Z,8.43
2022-10-19T07:08:42.007Z,8.27
2022-10-19T07:09:43.772Z,8.70
2022-10-19T07:10:51.576Z,8.37
2022-10-19T07:11:53.308Z,9.20
2022-10-19T07:12:56.670Z,8.37
2022-10-19T07:13:58.418Z,7.57
2022-10-19T07:15:00.171Z,8.07
2022-10-19T07:16:19.739Z,7.60
2022-10-19T07:17:23.099Z,7.00
2022-10-19T07:18:25.835Z,6.93
2022-10-19T07:19:27.627Z,6.40
2022-10-19T07:20:29.356Z,6.97
2022-10-19T07:21:31.108Z,6.40
2022-10-19T07:22:32.874Z,6.87
2022-10-19T07:23:37.569Z,7.03
2022-10-19T07:24:39.259Z,6.20
2022-10-19T07:25:40.975Z,8.43
2022-10-19T07:26:42.762Z,5.97
2022-10-19T07:27:44.532Z,6.17
2022-10-19T07:28:48.238Z,6.27
2022-10-19T07:29:50.218Z,6.13
2022-10-19T07:30:51.946Z,6.47
2022-10-19T07:31:53.719Z,7.17
2022-10-19T07:32:55.460Z,9.00
2022-10-19T07:34:01.207Z,6.90
2022-10-19T07:35:03.083Z,11.47
2022-10-19T07:36:08.681Z,7.00
2022-10-19T07:37:10.460Z,7.73
2022-10-19T07:38:12.246Z,11.50
2022-10-19T07:39:16.958Z,8.20
2022-10-19T07:40:18.660Z,7.73
2022-10-19T07:41:24.541Z,10.23
2022-10-19T07:42:30.314Z,6.57
2022-10-19T07:43:32.840Z,8.53
2022-10-19T07:44:34.616Z,5.77
2022-10-19T07:45:36.355Z,6.40
2022-10-19T07:46:39.345Z,9.03
2022-10-19T07:47:41.107Z,8.30
2022-10-19T07:48:44.350Z,9.00
2022-10-19T07:49:46.101Z,6.00
2022-10-19T07:50:48.957Z,6.03
2022-10-19T07:51:53.958Z,6.43
2022-10-19T07:52:55.835Z,10.23
2022-10-19T07:54:00.361Z,7.80
2022-10-19T07:55:02.244Z,6.97
2022-10-19T07:56:11.103Z,7.60
2022-10-19T07:57:12.904Z,11.03
2022-10-19T07:58:14.627Z,14.43
2022-10-19T07:59:17.244Z,10.97
2022-10-19T08:00:19.090Z,9.30
2022-10-19T08:01:24.254Z,5.93
2022-10-19T08:02:30.875Z,6.03
2022-10-19T08:04:42.715Z,5.60
2022-10-19T08:05:07.884Z,5.87
2022-10-19T08:06:17.646Z,5.47
2022-10-19T08:07:19.361Z,6.83
2022-10-19T08:08:21.076Z,6.50
2022-10-19T08:09:51.080Z,5.63
2022-10-19T08:10:44.513Z,5.13
2022-10-19T08:11:46.219Z,5.20
2022-10-19T08:12:47.925Z,5.60
2022-10-19T08:13:50.245Z,5.43
2022-10-19T08:14:54.352Z,5.87
2022-10-19T08:15:56.058Z,7.00
2022-10-19T08:16:57.981Z,5.10
2022-10-19T08:18:00.762Z,5.47
2022-10-19T08:19:10.068Z,6.57
2022-10-19T08:20:11.910Z,6.63
2022-10-19T08:21:13.631Z,5.67
2022-10-19T08:22:15.456Z,5.80
2022-10-19T08:23:17.220Z,5.50
2022-10-19T08:24:20.414Z,5.53
2022-10-19T08:25:22.158Z,5.43
2022-10-19T08:26:24.374Z,7.13
2022-10-19T08:27:26.636Z,7.63
2022-10-19T08:28:28.401Z,5.37
2022-10-19T08:29:31.554Z,5.20
2022-10-19T08:30:37.044Z,5.20
2022-10-19T08:31:39.871Z,5.17
2022-10-19T08:32:41.937Z,5.10
2022-10-19T08:33:44.463Z,5.70
2022-10-19T08:34:46.292Z,6.20
2022-10-19T08:35:48.000Z,6.00
2022-10-19T08:36:49.725Z,5.77
2022-10-19T08:37:51.897Z,8.13
2022-10-19T08:38:53.807Z,6.57
2022-10-19T08:39:55.525Z,7.07
2022-10-19T08:41:04.170Z,8.90
2022-10-19T08:42:19.270Z,6.27
2022-10-19T08:43:36.769Z,6.13
2022-10-19T08:45:13.933Z,8.57
2022-10-19T08:46:39.105Z,6.23
2022-10-19T08:48:30.265Z,6.00
2022-10-19T08:49:32.927Z,9.30
2022-10-19T08:50:41.201Z,7.83
2022-10-19T08:51:46.762Z,6.77
2022-10-19T08:53:01.405Z,5.57
2022-10-19T08:54:12.108Z,6.20
2022-10-19T08:55:20.607Z,7.03
2022-10-19T08:56:51.569Z,6.97
2022-10-19T08:58:44.765Z,4.93
2022-10-19T09:00:06.141Z,6.90
2022-10-19T09:01:37.645Z,8.40
2022-10-19T09:03:37.827Z,6.73
2022-10-19T09:05:03.451Z,4.90
2022-10-19T09:06:28.348Z,5.20
2022-10-19T09:07:44.986Z,4.70
2022-10-19T09:08:48.299Z,5.30
2022-10-19T09:10:04.341Z,5.13
2022-10-19T09:11:10.303Z,5.33
2022-10-19T09:12:19.512Z,4.87
2022-10-19T09:14:04.109Z,5.17
2022-10-19T09:15:17.820Z,6.57
2022-10-19T09:16:21.043Z,4.70
2022-10-19T09:17:24.802Z,4.53
2022-10-19T09:18:31.485Z,4.93
2022-10-19T09:19:33.531Z,4.40
2022-10-19T09:20:41.198Z,4.77
2022-10-19T09:21:55.414Z,4.10
2022-10-19T09:23:21.201Z,4.27
2022-10-19T09:24:50.753Z,4.23
2022-10-19T09:25:53.725Z,4.33
2022-10-19T09:27:01.599Z,4.13
2022-10-19T09:28:43.019Z,3.70
2022-10-19T09:29:55.216Z,3.73
2022-10-19T09:30:59.527Z,7.07
2022-10-19T09:32:11.234Z,11.87
2022-10-19T09:33:28.377Z,10.57
2022-10-19T09:34:46.247Z,5.10
2022-10-19T09:35:48.652Z,3.90
2022-10-19T09:36:59.376Z,4.27
2022-10-19T09:38:04.674Z,4.90
2022-10-19T09:39:06.451Z,7.07
2022-10-19T09:40:21.677Z,4.20
2022-10-19T09:41:24.358Z,3.67
2022-10-19T09:42:33.613Z,4.23
2022-10-19T09:43:35.756Z,5.33
2022-10-19T09:44:37.567Z,3.70
2022-10-19T09:46:19.795Z,4.00
2022-10-19T09:47:35.557Z,3.50
2022-10-19T09:48:52.870Z,3.23
2022-10-19T09:50:19.163Z,3.57
2022-10-19T09:51:21.635Z,3.43
2022-10-19T09:52:31.187Z,3.47
2022-10-19T09:53:33.000Z,3.20
2022-10-19T09:54:39.099Z,4.17
2022-10-19T09:56:56.090Z,4.67
2022-10-19T09:58:20.427Z,4.57
2022-10-19T09:59:28.757Z,4.30
2022-10-19T10:00:45.032Z,3.53
2022-10-19T10:01:46.822Z,3.50
2022-10-19T10:02:54.682Z,3.53
2022-10-19T10:04:17.202Z,3.50
2022-10-19T10:05:20.506Z,3.80
2022-10-19T10:06:22.618Z,3.27
2022-10-19T10:07:33.974Z,3.80
2022-10-19T10:08:58.951Z,3.20
2022-10-19T10:10:01.030Z,3.40
2022-10-19T10:11:06.961Z,3.57
2022-10-19T10:12:09.621Z,6.27
2022-10-19T10:13:21.082Z,3.67
2022-10-19T10:14:41.872Z,3.33
2022-10-19T10:15:49.493Z,3.27
2022-10-19T10:17:07.926Z,3.20
2022-10-19T10:18:17.062Z,2.97
2022-10-19T10:19:19.166Z,3.17
2022-10-19T10:20:32.189Z,4.77
2022-10-19T10:21:46.108Z,3.30
2022-10-19T10:23:03.324Z,2.80
2022-10-19T10:24:05.854Z,5.47
2022-10-19T10:25:18.362Z,3.17
2022-10-19T10:26:20.428Z,3.13
2022-10-19T10:27:40.585Z,5.27
2022-10-19T10:28:50.295Z,4.50
2022-10-19T10:31:07.960Z,2.80
2022-10-19T10:32:19.424Z,3.20
2022-10-19T10:33:40.430Z,2.80
2022-10-19T10:35:01.628Z,2.60
2022-10-19T10:36:13.227Z,3.10
2022-10-19T10:37:28.122Z,2.93
2022-10-19T10:38:50.140Z,2.90
2022-10-19T10:39:57.676Z,2.57
2022-10-19T10:41:14.795Z,2.23
2022-10-19T10:42:26.623Z,2.30
2022-10-19T10:43:33.583Z,1.73
2022-10-19T10:44:36.687Z,1.93
2022-10-19T10:45:42.892Z,2.07
2022-10-19T10:47:00.467Z,2.37
2022-10-19T10:48:42.843Z,2.90
2022-10-19T10:49:55.431Z,1.60
2022-10-19T10:51:00.702Z,1.80
2022-10-19T10:52:09.678Z,1.73
2022-10-19T10:53:33.156Z,1.97
2022-10-19T10:54:35.140Z,2.73
2022-10-19T10:55:36.851Z,2.85
2022-10-19T10:56:40.964Z,1.23
2022-10-19T10:57:49.746Z,1.45
2022-10-19T10:59:00.660Z,2.10
2022-10-19T11:00:20.123Z,2.22
2022-10-19T11:01:33.485Z,1.65
2022-10-19T11:03:12.141Z,3.95
2022-10-19T11:04:25.275Z,2.58
2022-10-19T11:05:30.447Z,1.60
2022-10-19T11:06:43.671Z,2.00
2022-10-19T11:07:54.940Z,1.35
2022-10-19T11:09:11.585Z,1.30
2022-10-19T11:10:41.255Z,1.50
2022-10-19T11:11:47.546Z,1.60
2022-10-19T11:13:25.921Z,2.03
2022-10-19T11:14:51.014Z,1.38
2022-10-19T11:15:57.130Z,1.50
2022-10-19T11:17:06.849Z,1.80
2022-10-19T11:18:32.211Z,2.17
2022-10-19T11:19:43.006Z,1.40
2022-10-19T11:21:12.091Z,1.70
2022-10-19T11:22:28.212Z,1.50
2022-10-19T11:23:45.791Z,1.63
2022-10-19T11:24:54.013Z,1.40
2022-10-19T11:26:17.611Z,2.90
2022-10-19T11:27:51.503Z,1.37
2022-10-19T11:29:30.761Z,1.95
2022-10-19T11:30:55.355Z,4.10
2022-10-19T11:31:57.981Z,1.50
2022-10-19T11:33:28.241Z,1.90
2022-10-19T11:34:52.924Z,1.40
2022-10-19T11:36:02.007Z,4.10
2022-10-19T11:37:20.958Z,1.53
2022-10-19T11:38:43.425Z,2.03
2022-10-19T11:39:50.838Z,1.63
2022-10-19T11:41:17.486Z,1.40
2022-10-19T11:42:50.611Z,2.97
2022-10-19T11:44:13.415Z,4.83
2022-10-19T11:45:30.953Z,2.13
2022-10-19T11:46:59.996Z,2.10
2022-10-19T11:48:20.482Z,2.17
2022-10-19T11:49:24.986Z,1.23
2022-10-19T11:51:21.896Z,1.60
2022-10-19T11:52:46.492Z,1.53
2022-10-19T11:54:30.418Z,5.33
2022-10-19T11:55:56.825Z,1.80
2022-10-19T11:57:11.786Z,3.17
2022-10-19T11:58:57.499Z,2.20
2022-10-19T12:00:14.106Z,1.87
2022-10-19T12:01:48.117Z,1.70
2022-10-19T12:03:05.834Z,1.87
2022-10-19T12:04:23.216Z,1.70
2022-10-19T12:06:10.877Z,1.53
2022-10-19T12:07:30.846Z,5.53
2022-10-19T12:09:10.561Z,1.97
2022-10-19T12:10:36.506Z,1.70
2022-10-19T12:12:25.241Z,2.67
2022-10-19T12:13:49.027Z,1.87
2022-10-19T12:15:12.881Z,1.93
2022-10-19T12:16:17.212Z,2.50
2022-10-19T12:17:32.974Z,3.50
2022-10-19T12:18:46.084Z,4.33
2022-10-19T12:19:58.643Z,2.20
2022-10-19T12:21:08.489Z,2.50
2022-10-19T12:22:21.034Z,2.57
2022-10-19T12:23:41.355Z,2.63
2022-10-19T12:24:43.438Z,2.37
2022-10-19T12:25:46.594Z,4.60
2022-10-19T12:26:51.091Z,2.63
2022-10-19T12:27:54.084Z,2.83
2022-10-19T12:29:22.256Z,3.80
2022-10-19T12:30:24.959Z,3.27
2022-10-19T12:31:29.992Z,2.20
2022-10-19T12:32:47.227Z,2.40
2022-10-19T12:34:22.454Z,2.37
2022-10-19T12:35:53.295Z,2.20
2022-10-19T12:37:15.302Z,2.23
2022-10-19T12:38:45.935Z,2.53
2022-10-19T12:40:11.692Z,3.13
2022-10-19T12:41:57.746Z,2.40
2022-10-19T12:43:17.128Z,2.70
2022-10-19T12:44:37.822Z,2.67
2022-10-19T12:45:41.362Z,2.97
2022-10-19T12:47:06.685Z,4.00
2022-10-19T12:48:08.327Z,3.10
2022-10-19T12:49:30.244Z,2.53
2022-10-19T12:50:50.544Z,2.90
2022-10-19T12:51:53.992Z,2.50
2022-10-19T12:52:55.742Z,6.70
2022-10-19T12:54:09.558Z,6.47
2022-10-19T12:55:34.689Z,2.80
2022-10-19T12:56:53.560Z,2.43
2022-10-19T12:58:04.360Z,4.20
2022-10-19T12:59:29.060Z,2.43
2022-10-19T13:00:36.041Z,2.53
2022-10-19T13:01:37.720Z,3.00
2022-10-19T13:02:41.503Z,2.53
2022-10-19T13:03:46.864Z,2.60
2022-10-19T13:04:54.213Z,2.37
2022-10-19T13:06:04.903Z,2.40
2022-10-19T13:07:09.074Z,2.80
2022-10-19T13:08:38.786Z,3.57
2022-10-19T13:09:46.902Z,5.03
2022-10-19T13:11:14.387Z,3.37
2022-10-19T13:12:19.797Z,2.70
2022-10-19T13:13:52.096Z,3.60
2022-10-19T13:15:04.840Z,3.80
2022-10-19T13:16:29.343Z,3.30
2022-10-19T13:17:34.464Z,2.80
2022-10-19T13:18:59.757Z,2.60
2022-10-19T13:20:13.818Z,5.00
2022-10-19T13:21:50.721Z,2.87
2022-10-19T13:23:03.453Z,3.20
2022-10-19T13:25:47.199Z,2.30
2022-10-19T13:27:08.890Z,2.10
2022-10-19T13:28:10.692Z,4.70
2022-10-19T13:29:27.193Z,2.30
2022-10-19T13:30:37.738Z,2.23
2022-10-19T13:31:39.945Z,3.97
2022-10-19T13:32:45.305Z,2.17
2022-10-19T13:33:49.803Z,3.07
2022-10-19T13:34:51.612Z,3.57
2022-10-19T13:35:59.140Z,3.20
2022-10-19T13:37:03.917Z,2.27
2022-10-19T13:38:18.231Z,2.77
2022-10-19T13:39:28.840Z,2.07
2022-10-19T13:40:31.264Z,2.23
2022-10-19T13:41:39.133Z,2.13
2022-10-19T13:42:40.997Z,3.10
2022-10-19T13:44:11.930Z,1.80
2022-10-19T13:45:24.737Z,2.30
2022-10-19T13:47:05.613Z,4.00
2022-10-19T13:48:28.337Z,2.10
2022-10-19T13:50:06.408Z,1.97
2022-10-19T13:51:24.712Z,2.00
2022-10-19T13:53:25.999Z,1.70
2022-10-19T13:54:58.209Z,2.80
2022-10-19T13:56:45.127Z,3.23
2022-10-19T13:58:24.138Z,1.70
2022-10-19T14:00:05.242Z,2.50
2022-10-19T14:01:31.187Z,2.57
2022-10-19T14:03:08.062Z,2.20
2022-10-19T14:04:44.907Z,2.37
2022-10-19T14:06:17.209Z,2.43
2022-10-19T14:07:32.878Z,1.80
2022-10-19T14:08:56.385Z,2.13
2022-10-19T14:10:16.074Z,2.37
2022-10-19T14:11:26.290Z,2.40
2022-10-19T14:12:31.289Z,2.80
2022-10-19T14:13:33.071Z,2.30
2022-10-19T14:14:44.273Z,2.30
2022-10-19T14:15:56.204Z,3.67
2022-10-19T14:17:03.874Z,2.73
2022-10-19T14:18:36.392Z,3.20
2022-10-19T14:19:57.104Z,2.60
2022-10-19T14:21:06.261Z,2.87
2022-10-19T14:22:37.515Z,2.90
2022-10-19T14:23:40.440Z,3.00
2022-10-19T14:24:42.194Z,2.83
2022-10-19T14:26:03.743Z,2.80
2022-10-19T14:27:07.695Z,3.03
2022-10-19T14:28:09.478Z,2.80
2022-10-19T14:29:13.416Z,3.27
2022-10-19T14:30:36.302Z,3.63
2022-10-19T14:31:39.681Z,2.67
2022-10-19T14:32:41.442Z,3.30
2022-10-19T14:33:50.193Z,2.80
2022-10-19T14:34:53.504Z,2.87
2022-10-19T14:35:56.146Z,3.20
2022-10-19T14:36:58.054Z,2.60
2022-10-19T14:38:00.703Z,2.90
2022-10-19T14:39:03.534Z,3.20
2022-10-19T14:40:26.581Z,3.43
2022-10-19T14:41:37.267Z,2.83
2022-10-19T14:42:45.317Z,3.00
2022-10-19T14:43:47.208Z,2.97
2022-10-19T14:44:49.114Z,2.17
2022-10-19T14:46:10.818Z,2.70
2022-10-19T14:47:20.966Z,2.73
2022-10-19T14:48:22.732Z,2.67
2022-10-19T14:49:24.456Z,2.70
2022-10-19T14:50:56.419Z,2.87
2022-10-19T14:52:03.778Z,3.10
2022-10-19T14:53:15.692Z,2.80
2022-10-19T14:54:36.372Z,2.50
2022-10-19T14:55:41.408Z,2.83
2022-10-19T14:56:55.451Z,2.63
2022-10-19T14:57:57.609Z,3.00
2022-10-19T14:59:34.620Z,3.13
2022-10-19T15:00:36.523Z,3.13
2022-10-19T15:01:38.408Z,2.93
2022-10-19T15:02:46.885Z,2.63
2022-10-19T15:03:50.072Z,3.50
2022-10-19T15:04:56.383Z,2.73
2022-10-19T15:06:06.272Z,3.07
2022-10-19T15:07:41.976Z,2.83
2022-10-19T15:08:51.258Z,3.80
2022-10-19T15:09:59.341Z,3.90
2022-10-19T15:11:01.242Z,2.90
2022-10-19T15:12:14.607Z,2.80
2022-10-19T15:13:19.050Z,5.00
2022-10-19T15:14:27.974Z,3.17
2022-10-19T15:15:33.598Z,9.17
2022-10-19T15:16:51.035Z,3.10
2022-10-19T15:18:03.171Z,4.43
2022-10-19T15:19:14.347Z,3.97
2022-10-19T15:20:49.066Z,2.80
2022-10-19T15:22:08.869Z,3.17
2022-10-19T15:23:44.937Z,2.77
2022-10-19T15:25:08.183Z,2.80
2022-10-19T15:26:29.724Z,3.97